createdAt,value
2017-12-26T00:02:07.552Z,96852.83
2017-12-26T00:04:35.053Z,96843.67
2017-12-26T00:07:02.593Z,96841.78
2017-12-26T00:09:30.126Z,96831.28
2017-12-26T00:11:57.641Z,96836.82
2017-12-26T00:14:26.192Z,96836.47
2017-12-26T00:16:53.701Z,96835.23
2017-12-26T00:19:21.200Z,96825.41
2017-12-26T00:21:48.754Z,96823.77
2017-12-26T00:24:16.506Z,96816.42
2017-12-26T00:26:44.011Z,96813.04
2017-12-26T00:29:11.857Z,96818.41
2017-12-26T00:31:39.387Z,96809.42
2017-12-26T00:34:06.884Z,96801.23
2017-12-26T00:36:34.709Z,96802.59
2017-12-26T00:39:02.218Z,96795.02
2017-12-26T00:41:29.723Z,96790.17
2017-12-26T00:43:57.248Z,96779.98
2017-12-26T00:46:24.744Z,96786.72
2017-12-26T00:48:52.246Z,96770.96
2017-12-26T00:51:19.777Z,96770.06
2017-12-26T00:53:47.276Z,96766.19
2017-12-26T00:56:14.773Z,96757.32
2017-12-26T00:58:42.638Z,96760.41
2017-12-26T01:01:10.150Z,96754.78
2017-12-26T01:03:37.656Z,96756.66
2017-12-26T01:06:05.296Z,96759.58
2017-12-26T01:08:32.789Z,96757.14
2017-12-26T01:11:00.290Z,96755.59
2017-12-26T01:13:27.840Z,96750.08
2017-12-26T01:15:55.345Z,96744.56
2017-12-26T01:18:22.908Z,96747.39
2017-12-26T01:20:50.453Z,96744.77
2017-12-26T01:23:17.962Z,96748.66
2017-12-26T01:25:45.465Z,96743.22
2017-12-26T01:28:13.018Z,96741.77
2017-12-26T01:30:40.523Z,96743.29
2017-12-26T01:33:08.054Z,96735.09
2017-12-26T01:35:35.921Z,96734.78
2017-12-26T01:38:03.421Z,96734.09
2017-12-26T01:40:30.921Z,96731.25
2017-12-26T01:42:58.496Z,96725.33
2017-12-26T01:45:26.055Z,96722.82
2017-12-26T01:47:53.556Z,96725.48
2017-12-26T01:50:21.109Z,96720.72
2017-12-26T01:52:48.608Z,96716.36
2017-12-26T01:55:16.164Z,96717.99
2017-12-26T01:57:43.675Z,96722.61
2017-12-26T02:00:11.205Z,96723.20
2017-12-26T02:02:38.709Z,96718.53
2017-12-26T02:05:06.391Z,96716.97
2017-12-26T02:07:33.889Z,96721.44
2017-12-26T02:10:01.384Z,96711.17
2017-12-26T02:12:28.913Z,96702.88
2017-12-26T02:14:56.409Z,96706.22
2017-12-26T02:17:23.909Z,96702.78
2017-12-26T02:19:51.456Z,96697.52
2017-12-26T02:22:18.962Z,96691.67
2017-12-26T02:24:46.465Z,96689.75
2017-12-26T02:27:14.120Z,96689.39
2017-12-26T02:29:41.626Z,96687.25
2017-12-26T02:32:09.124Z,96692.28
2017-12-26T02:34:36.665Z,96689.39
2017-12-26T02:37:04.166Z,96679.31
2017-12-26T02:39:31.675Z,96674.74
2017-12-26T02:41:59.217Z,96667.67
2017-12-26T02:44:26.754Z,96664.14
2017-12-26T02:46:54.253Z,96662.73
2017-12-26T02:49:21.792Z,96654.28
2017-12-26T02:51:49.297Z,96652.00
2017-12-26T02:54:16.798Z,96649.77
2017-12-26T02:56:44.342Z,96650.50
2017-12-26T02:59:11.840Z,96642.36
2017-12-26T03:01:39.345Z,96640.96
2017-12-26T03:04:07.227Z,96632.55
2017-12-26T03:06:34.733Z,96627.56
2017-12-26T03:09:02.238Z,96632.16
2017-12-26T03:11:30.417Z,96633.59
2017-12-26T03:13:57.916Z,96632.98
2017-12-26T03:16:25.418Z,96622.55
2017-12-26T03:18:53.092Z,96629.38
2017-12-26T03:21:20.593Z,96631.45
2017-12-26T03:23:48.094Z,96627.86
2017-12-26T03:26:15.667Z,96626.00
2017-12-26T03:28:43.168Z,96608.76
2017-12-26T03:31:10.683Z,96609.34
2017-12-26T03:33:38.424Z,96613.20
2017-12-26T03:36:05.922Z,96606.09
2017-12-26T03:38:33.420Z,96610.86
2017-12-26T03:41:01.124Z,96604.81
2017-12-26T03:43:28.626Z,96610.88
2017-12-26T03:45:56.134Z,96611.70
2017-12-26T03:48:23.711Z,96608.09
2017-12-26T03:50:51.221Z,96603.06
2017-12-26T03:53:18.716Z,96591.76
2017-12-26T03:55:46.248Z,96585.94
2017-12-26T03:58:13.754Z,96577.24
2017-12-26T04:00:41.297Z,96573.56
2017-12-26T04:03:08.964Z,96573.36
2017-12-26T04:05:36.465Z,96566.84
2017-12-26T04:08:03.993Z,96560.92
2017-12-26T04:10:31.549Z,96552.95
2017-12-26T04:12:59.085Z,96556.75
2017-12-26T04:15:26.593Z,96556.38
2017-12-26T04:17:54.477Z,96551.62
2017-12-26T04:20:22.465Z,96555.16
2017-12-26T04:22:49.969Z,96553.84
2017-12-26T04:25:17.617Z,96538.48
2017-12-26T04:27:45.137Z,96539.68
2017-12-26T04:30:12.637Z,96538.22
2017-12-26T04:32:40.170Z,96531.80
2017-12-26T04:35:07.673Z,96530.48
2017-12-26T04:37:35.174Z,96529.66
2017-12-26T04:40:02.963Z,96536.23
2017-12-26T04:42:30.510Z,96533.08
2017-12-26T04:44:58.009Z,96531.09
2017-12-26T04:47:25.805Z,96528.13
2017-12-26T04:49:53.317Z,96529.30
2017-12-26T04:52:20.818Z,96524.91
2017-12-26T04:54:48.444Z,96529.16
2017-12-26T04:57:15.943Z,96514.00
2017-12-26T04:59:43.437Z,96513.91
2017-12-26T05:02:10.982Z,96506.16
2017-12-26T05:04:38.542Z,96510.47
2017-12-26T05:07:06.037Z,96506.03
2017-12-26T05:09:33.831Z,96503.30
2017-12-26T05:12:01.334Z,96504.89
2017-12-26T05:14:29.800Z,96505.97
2017-12-26T05:16:57.564Z,96511.51
2017-12-26T05:19:25.066Z,96503.34
2017-12-26T05:21:52.574Z,96487.63
2017-12-26T05:24:20.256Z,96488.33
2017-12-26T05:26:47.754Z,96494.89
2017-12-26T05:29:15.255Z,96488.55
2017-12-26T05:31:42.804Z,96490.39
2017-12-26T05:34:10.307Z,96492.36
2017-12-26T05:36:37.813Z,96483.03
2017-12-26T05:39:05.581Z,96491.39
2017-12-26T05:41:33.080Z,96475.42
2017-12-26T05:44:00.611Z,96483.81
2017-12-26T05:46:28.378Z,96484.98
2017-12-26T05:48:55.885Z,96482.89
2017-12-26T05:51:23.380Z,96480.47
2017-12-26T05:53:51.155Z,96469.03
2017-12-26T05:56:18.662Z,96462.73
2017-12-26T05:58:46.170Z,96459.09
2017-12-26T06:01:13.707Z,96454.55
2017-12-26T06:03:41.221Z,96456.30
2017-12-26T06:06:08.721Z,96451.72
2017-12-26T06:08:36.553Z,96450.91
2017-12-26T06:11:04.053Z,96445.84
2017-12-26T06:13:31.552Z,96443.81
2017-12-26T06:15:59.356Z,96437.05
2017-12-26T06:18:26.856Z,96441.23
2017-12-26T06:20:55.327Z,96437.70
2017-12-26T06:23:22.963Z,96435.69
2017-12-26T06:25:50.465Z,96426.91
2017-12-26T06:28:17.969Z,96424.09
2017-12-26T06:30:45.502Z,96423.25
2017-12-26T06:33:13.010Z,96421.05
2017-12-26T06:35:40.507Z,96425.18
2017-12-26T06:38:08.040Z,96430.64
2017-12-26T06:40:35.545Z,96422.94
2017-12-26T06:43:03.045Z,96426.35
2017-12-26T06:45:30.815Z,96423.12
2017-12-26T06:47:58.309Z,96410.31
2017-12-26T06:50:25.831Z,96408.91
2017-12-26T06:52:53.390Z,96412.74
2017-12-26T06:55:20.890Z,96413.34
2017-12-26T06:57:48.398Z,96417.22
2017-12-26T07:00:16.034Z,96422.70
2017-12-26T07:02:43.537Z,96410.31
2017-12-26T07:05:11.038Z,96418.09
2017-12-26T07:07:38.744Z,96414.19
2017-12-26T07:10:06.244Z,96407.52
2017-12-26T07:12:33.769Z,96413.00
2017-12-26T07:15:01.728Z,96407.68
2017-12-26T07:17:29.227Z,96401.00
2017-12-26T07:19:56.729Z,96406.11
2017-12-26T07:22:24.308Z,96404.28
2017-12-26T07:24:51.809Z,96403.69
2017-12-26T07:27:19.315Z,96396.61
2017-12-26T07:29:46.864Z,96389.41
2017-12-26T07:32:14.386Z,96377.91
2017-12-26T07:34:41.900Z,96377.45
2017-12-26T07:37:09.460Z,96381.84
2017-12-26T07:39:36.960Z,96372.69
2017-12-26T07:42:04.457Z,96365.45
2017-12-26T07:44:31.998Z,96370.65
2017-12-26T07:46:59.497Z,96379.22
2017-12-26T07:49:26.993Z,96364.23
2017-12-26T07:51:54.884Z,96360.77
2017-12-26T07:54:22.389Z,96350.66
2017-12-26T07:56:49.898Z,96348.28
2017-12-26T07:59:17.995Z,96347.66
2017-12-26T08:01:45.493Z,96341.77
2017-12-26T08:04:12.988Z,96341.48
2017-12-26T08:06:40.698Z,96346.16
2017-12-26T08:09:08.231Z,96343.42
2017-12-26T08:11:35.736Z,96339.30
2017-12-26T08:14:03.293Z,96333.63
2017-12-26T08:16:30.805Z,96324.59
2017-12-26T08:18:58.313Z,96326.35
2017-12-26T08:21:25.861Z,96320.37
2017-12-26T08:23:53.407Z,96302.05
2017-12-26T08:26:20.940Z,96299.60
2017-12-26T08:28:48.581Z,96315.95
2017-12-26T08:31:16.085Z,96294.83
2017-12-26T08:33:43.617Z,96293.47
2017-12-26T08:36:11.355Z,96285.55
2017-12-26T08:38:38.857Z,96279.53
2017-12-26T08:41:06.397Z,96283.11
2017-12-26T08:43:34.263Z,96285.30
2017-12-26T08:46:01.770Z,96273.91
2017-12-26T08:48:29.270Z,96286.23
2017-12-26T08:50:56.952Z,96278.74
2017-12-26T08:53:24.454Z,96287.88
2017-12-26T08:55:51.958Z,96284.44
2017-12-26T08:58:19.494Z,96283.58
2017-12-26T09:00:47.002Z,96281.40
2017-12-26T09:03:14.501Z,96266.72
2017-12-26T09:05:42.164Z,96263.08
2017-12-26T09:08:09.665Z,96249.02
2017-12-26T09:10:37.170Z,96257.84
2017-12-26T09:13:04.869Z,96254.16
2017-12-26T09:15:32.375Z,96247.90
2017-12-26T09:17:59.916Z,96251.75
2017-12-26T09:20:27.452Z,96245.43
2017-12-26T09:22:54.948Z,96253.77
2017-12-26T09:25:22.454Z,96251.30
2017-12-26T09:27:49.998Z,96246.56
2017-12-26T09:30:17.506Z,96239.33
2017-12-26T09:32:45.022Z,96232.47
2017-12-26T09:35:12.879Z,96240.02
2017-12-26T09:37:40.385Z,96243.11
2017-12-26T09:40:07.915Z,96229.98
2017-12-26T09:42:35.445Z,96226.56
2017-12-26T09:45:02.944Z,96231.09
2017-12-26T09:47:30.490Z,96225.80
2017-12-26T09:49:58.273Z,96223.78
2017-12-26T09:52:26.669Z,96231.81
2017-12-26T09:54:54.169Z,96218.69
2017-12-26T09:57:22.979Z,96219.98
2017-12-26T09:59:50.487Z,96238.33
2017-12-26T10:02:17.989Z,96235.23
2017-12-26T10:04:45.522Z,96243.59
2017-12-26T10:07:13.021Z,96233.56
2017-12-26T10:09:40.672Z,96249.37
2017-12-26T10:12:08.260Z,96262.72
2017-12-26T10:14:35.790Z,96263.53
2017-12-26T10:17:03.296Z,96281.78
2017-12-26T10:19:30.831Z,96258.05
2017-12-26T10:21:58.363Z,96269.64
2017-12-26T10:24:25.865Z,96261.23
2017-12-26T10:26:53.688Z,96263.20
2017-12-26T10:29:21.198Z,96251.15
2017-12-26T10:31:48.715Z,96259.15
2017-12-26T10:34:16.399Z,96247.11
2017-12-26T10:36:43.906Z,96258.16
2017-12-26T10:39:11.410Z,96240.12
2017-12-26T10:41:39.167Z,96251.09
2017-12-26T10:44:06.695Z,96242.39
2017-12-26T10:46:34.218Z,96229.99
2017-12-26T10:49:01.755Z,96244.05
2017-12-26T10:51:29.266Z,96247.86
2017-12-26T10:53:56.784Z,96231.70
2017-12-26T10:56:24.327Z,96250.16
2017-12-26T10:58:51.844Z,96247.22
2017-12-26T11:01:19.411Z,96243.60
2017-12-26T11:03:46.962Z,96265.73
2017-12-26T11:06:14.487Z,96243.61
2017-12-26T11:08:42.009Z,96252.76
2017-12-26T11:11:09.775Z,96247.89
2017-12-26T11:13:37.391Z,96251.73
2017-12-26T11:16:04.972Z,96232.59
2017-12-26T11:18:33.146Z,96259.39
2017-12-26T11:21:00.704Z,96257.70
2017-12-26T11:23:29.183Z,96260.91
2017-12-26T11:25:56.866Z,96283.19
2017-12-26T11:28:24.403Z,96272.61
2017-12-26T11:30:51.963Z,96260.39
2017-12-26T11:33:19.911Z,96282.44
2017-12-26T11:35:47.426Z,96303.02
2017-12-26T11:38:14.947Z,96319.94
2017-12-26T11:40:42.690Z,96324.76
2017-12-26T11:43:10.215Z,96323.44
2017-12-26T11:45:37.734Z,96327.13
2017-12-26T11:48:05.475Z,96320.44
2017-12-26T11:50:32.995Z,96336.24
2017-12-26T11:53:00.510Z,96353.80
2017-12-26T11:55:28.062Z,96335.75
2017-12-26T11:57:55.586Z,96338.03
2017-12-26T12:00:23.103Z,96350.65
2017-12-26T12:02:50.886Z,96381.00
2017-12-26T12:05:18.411Z,96367.60
2017-12-26T12:07:45.962Z,96370.48
2017-12-26T12:10:13.706Z,96365.16
2017-12-26T12:12:41.223Z,96398.89
2017-12-26T12:15:08.740Z,96407.47
2017-12-26T12:17:36.311Z,96414.81
2017-12-26T12:20:03.859Z,96404.97
2017-12-26T12:22:31.441Z,96425.66
2017-12-26T12:24:59.388Z,96449.37
2017-12-26T12:27:26.898Z,96448.53
2017-12-26T12:29:54.418Z,96461.12
2017-12-26T12:32:22.274Z,96479.53
2017-12-26T12:34:49.828Z,96485.16
2017-12-26T12:37:17.338Z,96482.25
2017-12-26T12:39:45.227Z,96477.15
2017-12-26T12:42:13.223Z,96477.71
2017-12-26T12:44:40.778Z,96493.70
2017-12-26T12:47:08.525Z,96490.06
2017-12-26T12:49:36.039Z,96483.81
2017-12-26T12:52:03.557Z,96486.16
2017-12-26T12:54:31.141Z,96478.55
2017-12-26T12:56:58.668Z,96475.11
2017-12-26T12:59:26.186Z,96479.05
2017-12-26T13:01:53.899Z,96471.92
2017-12-26T13:04:21.412Z,96462.20
2017-12-26T13:06:48.931Z,96481.51
2017-12-26T13:09:16.659Z,96466.52
2017-12-26T13:11:44.179Z,96462.08
2017-12-26T13:14:11.694Z,96459.92
2017-12-26T13:16:39.259Z,96455.74
2017-12-26T13:19:06.775Z,96449.91
2017-12-26T13:21:34.291Z,96444.20
2017-12-26T13:24:01.863Z,96452.68
2017-12-26T13:26:29.384Z,96447.45
2017-12-26T13:28:56.946Z,96450.69
2017-12-26T13:31:24.490Z,96449.45
2017-12-26T13:33:52.063Z,96454.36
2017-12-26T13:36:19.622Z,96458.02
2017-12-26T13:38:47.172Z,96466.02
2017-12-26T13:41:14.847Z,96468.78
2017-12-26T13:43:42.355Z,96477.30
2017-12-26T13:46:09.985Z,96472.72
2017-12-26T13:48:37.520Z,96471.29
2017-12-26T13:51:05.018Z,96473.08
2017-12-26T13:53:32.582Z,96467.55
2017-12-26T13:56:00.098Z,96466.81
2017-12-26T13:58:27.653Z,96467.44
2017-12-26T14:00:55.519Z,96463.77
2017-12-26T14:03:23.097Z,96464.41
2017-12-26T14:05:50.601Z,96454.64
2017-12-26T14:08:18.175Z,96449.61
2017-12-26T14:10:45.681Z,96461.48
2017-12-26T14:13:13.194Z,96450.11
2017-12-26T14:15:40.874Z,96445.14
2017-12-26T14:18:08.386Z,96450.27
2017-12-26T14:20:36.066Z,96444.83
2017-12-26T14:23:03.605Z,96441.95
2017-12-26T14:25:31.113Z,96433.41
2017-12-26T14:27:58.669Z,96420.11
2017-12-26T14:30:26.409Z,96418.48
2017-12-26T14:32:53.913Z,96420.08
2017-12-26T14:35:21.435Z,96422.20
2017-12-26T14:37:48.968Z,96415.26
2017-12-26T14:40:16.478Z,96415.94
2017-12-26T14:42:43.987Z,96411.59
2017-12-26T14:45:11.769Z,96417.95
2017-12-26T14:47:39.274Z,96413.70
2017-12-26T14:50:06.809Z,96407.12
2017-12-26T14:52:34.377Z,96404.61
2017-12-26T14:55:01.876Z,96401.17
2017-12-26T14:57:29.480Z,96403.30
2017-12-26T14:59:57.118Z,96398.15
2017-12-26T15:02:24.643Z,96405.41
2017-12-26T15:04:52.189Z,96404.80
2017-12-26T15:07:20.124Z,96408.59
2017-12-26T15:09:47.626Z,96406.75
2017-12-26T15:12:15.153Z,96411.28
2017-12-26T15:14:42.689Z,96402.91
2017-12-26T15:17:10.206Z,96396.67
2017-12-26T15:19:37.713Z,96394.72
2017-12-26T15:22:05.350Z,96402.21
2017-12-26T15:24:32.853Z,96401.34
2017-12-26T15:27:00.368Z,96410.02
2017-12-26T15:29:28.129Z,96404.39
2017-12-26T15:31:55.629Z,96406.53
2017-12-26T15:34:23.176Z,96407.05
2017-12-26T15:36:50.716Z,96410.91
2017-12-26T15:39:18.215Z,96411.91
2017-12-26T15:41:45.708Z,96407.16
2017-12-26T15:44:13.386Z,96415.58
2017-12-26T15:46:40.884Z,96411.28
2017-12-26T15:49:08.386Z,96414.53
2017-12-26T15:51:36.025Z,96407.34
2017-12-26T15:54:03.534Z,96412.63
2017-12-26T15:56:31.043Z,96405.48
2017-12-26T15:58:58.585Z,96402.80
2017-12-26T16:01:26.118Z,96401.05
2017-12-26T16:03:53.694Z,96397.63
2017-12-26T16:06:21.253Z,96395.62
2017-12-26T16:08:48.749Z,96397.89
2017-12-26T16:11:16.338Z,96392.83
2017-12-26T16:13:44.320Z,96392.34
2017-12-26T16:16:11.822Z,96392.44
2017-12-26T16:18:40.260Z,96393.94
2017-12-26T16:21:08.139Z,96393.61
2017-12-26T16:23:35.805Z,96396.52
2017-12-26T16:26:03.549Z,96393.17
2017-12-26T16:28:31.313Z,96389.30
2017-12-26T16:30:58.833Z,96393.61
2017-12-26T16:33:26.504Z,96388.23
2017-12-26T16:35:54.502Z,96393.30
2017-12-26T16:38:22.054Z,96384.16
2017-12-26T16:40:50.313Z,96379.89
2017-12-26T16:43:18.509Z,96376.60
2017-12-26T16:45:46.377Z,96375.73
2017-12-26T16:48:14.150Z,96364.94
2017-12-26T16:50:41.928Z,96366.12
2017-12-26T16:53:09.668Z,96368.88
2017-12-26T16:55:37.232Z,96364.69
2017-12-26T16:58:04.968Z,96362.98
2017-12-26T17:00:32.651Z,96362.30
2017-12-26T17:03:00.521Z,96355.17
2017-12-26T17:05:28.282Z,96351.24
2017-12-26T17:07:56.148Z,96336.33
2017-12-26T17:10:24.110Z,96341.36
2017-12-26T17:12:51.691Z,96337.20
2017-12-26T17:15:19.274Z,96338.38
2017-12-26T17:17:46.793Z,96338.80
2017-12-26T17:20:15.093Z,96330.51
2017-12-26T17:22:42.661Z,96331.74
2017-12-26T17:25:10.222Z,96326.59
2017-12-26T17:27:37.910Z,96323.60
2017-12-26T17:30:05.417Z,96318.47
2017-12-26T17:32:32.925Z,96318.44
2017-12-26T17:35:00.505Z,96310.12
2017-12-26T17:37:28.005Z,96307.59
2017-12-26T17:39:55.506Z,96307.03
2017-12-26T17:42:23.978Z,96298.17
2017-12-26T17:44:51.551Z,96297.35
2017-12-26T17:47:19.235Z,96297.16
2017-12-26T17:49:46.914Z,96292.72
2017-12-26T17:52:14.421Z,96287.18
2017-12-26T17:54:42.024Z,96282.70
2017-12-26T17:57:09.600Z,96281.11
2017-12-26T17:59:37.347Z,96278.56
2017-12-26T18:02:05.518Z,96266.91
2017-12-26T18:04:33.597Z,96260.73
2017-12-26T18:07:01.251Z,96262.80
2017-12-26T18:09:28.810Z,96261.17
2017-12-26T18:11:56.471Z,96256.31
2017-12-26T18:14:24.235Z,96251.27
2017-12-26T18:16:51.999Z,96248.77
2017-12-26T18:19:19.971Z,96244.16
2017-12-26T18:21:48.104Z,96243.82
2017-12-26T18:24:15.636Z,96228.70
2017-12-26T18:26:43.557Z,96231.55
2017-12-26T18:29:11.173Z,96226.09
2017-12-26T18:31:38.761Z,96225.68
2017-12-26T18:34:07.169Z,96228.28
2017-12-26T18:36:34.714Z,96229.80
2017-12-26T18:39:02.376Z,96231.86
2017-12-26T18:41:30.353Z,96231.41
2017-12-26T18:43:58.117Z,96229.13
2017-12-26T18:46:25.677Z,96223.84
2017-12-26T18:48:53.577Z,96218.98
2017-12-26T18:51:21.168Z,96212.37
2017-12-26T18:53:48.873Z,96205.37
2017-12-26T18:56:16.527Z,96202.95
2017-12-26T18:58:44.291Z,96196.08
2017-12-26T19:01:11.850Z,96197.73
2017-12-26T19:03:39.597Z,96193.11
2017-12-26T19:06:07.105Z,96188.30
2017-12-26T19:08:34.620Z,96183.70
2017-12-26T19:11:02.473Z,96175.16
2017-12-26T19:13:29.998Z,96162.95
2017-12-26T19:15:57.519Z,96163.80
2017-12-26T19:18:26.506Z,96153.39
2017-12-26T19:20:54.041Z,96155.56
2017-12-26T19:23:21.591Z,96158.22
2017-12-26T19:25:49.283Z,96155.47
2017-12-26T19:28:16.944Z,96141.74
2017-12-26T19:30:44.564Z,96144.06
2017-12-26T19:33:12.100Z,96138.41
2017-12-26T19:35:39.601Z,96130.91
2017-12-26T19:38:07.123Z,96134.33
2017-12-26T19:40:34.758Z,96122.36
2017-12-26T19:43:02.310Z,96120.23
2017-12-26T19:45:29.858Z,96112.20
2017-12-26T19:47:57.593Z,96099.95
2017-12-26T19:50:25.282Z,96097.91
2017-12-26T19:52:52.845Z,96093.67
2017-12-26T19:55:21.016Z,96092.73
2017-12-26T19:57:48.645Z,96076.70
2017-12-26T20:00:16.319Z,96076.38
2017-12-26T20:02:44.363Z,96070.23
2017-12-26T20:05:12.177Z,96061.13
2017-12-26T20:07:39.836Z,96062.61
2017-12-26T20:10:07.449Z,96051.39
2017-12-26T20:12:35.056Z,96052.53
2017-12-26T20:15:02.792Z,96045.37
2017-12-26T20:17:30.788Z,96033.38
2017-12-26T20:19:58.349Z,96016.38
2017-12-26T20:22:26.523Z,96020.08
2017-12-26T20:24:54.282Z,96016.16
2017-12-26T20:27:21.790Z,96017.38
2017-12-26T20:29:55.022Z,96002.86
2017-12-26T20:32:22.689Z,96003.97
2017-12-26T20:34:50.359Z,95996.54
2017-12-26T20:37:18.326Z,95993.45
2017-12-26T20:39:45.884Z,95990.50
2017-12-26T20:42:13.521Z,95987.81
2017-12-26T20:44:41.134Z,95989.06
2017-12-26T20:47:08.766Z,95983.36
2017-12-26T20:49:36.633Z,95980.25
2017-12-26T20:52:04.805Z,95975.38
2017-12-26T20:54:32.467Z,95966.67
2017-12-26T20:57:00.053Z,95952.27
2017-12-26T20:59:27.673Z,95949.76
2017-12-26T21:01:55.451Z,95944.70
2017-12-26T21:04:23.320Z,95946.08
2017-12-26T21:06:51.185Z,95945.05
2017-12-26T21:09:18.721Z,95926.32
2017-12-26T21:11:46.406Z,95927.36
2017-12-26T21:14:14.264Z,95922.31
2017-12-26T21:16:41.933Z,95925.39
2017-12-26T21:19:09.496Z,95920.59
2017-12-26T21:21:37.869Z,95922.46
2017-12-26T21:24:05.527Z,95912.42
2017-12-26T21:26:33.090Z,95900.76
2017-12-26T21:29:00.905Z,95895.52
2017-12-26T21:31:28.514Z,95897.21
2017-12-26T21:33:56.238Z,95887.91
2017-12-26T21:36:23.980Z,95876.45
2017-12-26T21:38:52.209Z,95856.82
2017-12-26T21:41:19.878Z,95854.67
2017-12-26T21:43:47.641Z,95850.05
2017-12-26T21:46:15.406Z,95856.16
2017-12-26T21:48:43.169Z,95852.79
2017-12-26T21:51:11.179Z,95845.58
2017-12-26T21:53:38.802Z,95843.71
2017-12-26T21:56:06.460Z,95846.36
2017-12-26T21:58:34.072Z,95848.52
2017-12-26T22:01:01.609Z,95837.61
2017-12-26T22:03:29.137Z,95839.14
2017-12-26T22:05:56.720Z,95839.00
2017-12-26T22:08:24.358Z,95834.25
2017-12-26T22:10:51.945Z,95831.25
2017-12-26T22:13:19.775Z,95830.59
2017-12-26T22:15:48.221Z,95829.22
2017-12-26T22:18:16.951Z,95824.14
2017-12-26T22:20:44.815Z,95815.95
2017-12-26T22:23:12.468Z,95811.48
2017-12-26T22:25:40.102Z,95798.34
2017-12-26T22:28:08.004Z,95800.23
2017-12-26T22:30:35.871Z,95796.61
2017-12-26T22:33:03.444Z,95789.14
2017-12-26T22:35:31.398Z,95781.14
2017-12-26T22:37:59.468Z,95772.88
2017-12-26T22:40:27.058Z,95778.11
2017-12-26T22:42:54.779Z,95770.94
2017-12-26T22:45:22.346Z,95768.94
2017-12-26T22:47:49.857Z,95765.02
2017-12-26T22:50:17.495Z,95755.42
2017-12-26T22:52:45.039Z,95755.04
2017-12-26T22:55:12.791Z,95745.20
2017-12-26T22:57:40.554Z,95745.97
2017-12-26T23:00:08.053Z,95738.91
2017-12-26T23:02:35.570Z,95737.60
2017-12-26T23:05:03.205Z,95729.52
2017-12-26T23:07:30.792Z,95724.59
2017-12-26T23:09:58.308Z,95719.87
2017-12-26T23:12:26.012Z,95717.05
2017-12-26T23:14:59.256Z,95711.09
2017-12-26T23:17:32.599Z,95706.65
2017-12-26T23:20:05.852Z,95698.66
2017-12-26T23:22:33.471Z,95691.59
2017-12-26T23:25:06.617Z,95682.22
2017-12-26T23:27:39.921Z,95687.31
2017-12-26T23:30:13.057Z,95677.16
2017-12-26T23:32:46.604Z,95670.31
2017-12-26T23:35:19.588Z,95662.81
2017-12-26T23:37:52.905Z,95664.33
2017-12-26T23:40:26.001Z,95653.34
2017-12-26T23:42:59.165Z,95645.14
2017-12-26T23:45:32.181Z,95637.58
2017-12-26T23:48:06.081Z,95626.33
2017-12-26T23:50:39.107Z,95614.63
2017-12-26T23:53:12.257Z,95603.15
2017-12-26T23:55:45.428Z,95590.55
2017-12-26T23:58:18.912Z,95590.58
